sensor_id;sensor_type;location;lat;lon;timestamp;P1;durP1;ratioP1;P2;durP2;ratioP2
77055;SDS011;67471;44.918;8.614;2024-03-07T00:02:50;14.75;;;8.32;;
77055;SDS011;67471;44.918;8.614;2024-03-07T00:05:57;13.60;;;8.25;;
77055;SDS011;67471;44.918;8.614;2024-03-07T00:09:01;11.68;;;7.95;;
77055;SDS011;67471;44.918;8.614;2024-03-07T00:12:06;9.65;;;7.10;;
77055;SDS011;67471;44.918;8.614;2024-03-07T00:15:11;13.57;;;7.85;;
77055;SDS011;67471;44.918;8.614;2024-03-07T00:18:16;12.27;;;8.15;;
77055;SDS011;67471;44.918;8.614;2024-03-07T00:21:19;11.23;;;6.90;;
77055;SDS011;67471;44.918;8.614;2024-03-07T00:24:23;7.07;;;6.03;;
77055;SDS011;67471;44.918;8.614;2024-03-07T00:27:27;8.70;;;6.28;;
77055;SDS011;67471;44.918;8.614;2024-03-07T00:30:32;8.45;;;5.57;;
77055;SDS011;67471;44.918;8.614;2024-03-07T00:33:37;8.00;;;5.65;;
77055;SDS011;67471;44.918;8.614;2024-03-07T00:36:40;11.20;;;5.97;;
77055;SDS011;67471;44.918;8.614;2024-03-07T00:39:44;9.57;;;5.63;;
77055;SDS011;67471;44.918;8.614;2024-03-07T00:42:48;10.02;;;5.35;;
77055;SDS011;67471;44.918;8.614;2024-03-07T00:45:52;8.60;;;5.72;;
77055;SDS011;67471;44.918;8.614;2024-03-07T00:48:55;8.50;;;5.50;;
77055;SDS011;67471;44.918;8.614;2024-03-07T00:52:00;10.10;;;6.07;;
77055;SDS011;67471;44.918;8.614;2024-03-07T00:55:04;9.15;;;5.80;;
77055;SDS011;67471;44.918;8.614;2024-03-07T00:58:11;8.07;;;5.32;;
77055;SDS011;67471;44.918;8.614;2024-03-07T01:01:16;9.60;;;6.50;;
77055;SDS011;67471;44.918;8.614;2024-03-07T01:04:22;10.32;;;5.97;;
77055;SDS011;67471;44.918;8.614;2024-03-07T01:07:25;10.95;;;6.35;;
77055;SDS011;67471;44.918;8.614;2024-03-07T01:10:31;13.00;;;6.32;;
77055;SDS011;67471;44.918;8.614;2024-03-07T01:13:38;11.80;;;6.53;;
77055;SDS011;67471;44.918;8.614;2024-03-07T01:16:42;11.95;;;5.70;;
77055;SDS011;67471;44.918;8.614;2024-03-07T01:19:46;10.52;;;6.05;;
77055;SDS011;67471;44.918;8.614;2024-03-07T01:22:53;7.68;;;6.00;;
77055;SDS011;67471;44.918;8.614;2024-03-07T01:25:57;8.82;;;6.03;;
77055;SDS011;67471;44.918;8.614;2024-03-07T01:29:02;8.07;;;6.10;;
77055;SDS011;67471;44.918;8.614;2024-03-07T01:32:05;10.52;;;6.50;;
77055;SDS011;67471;44.918;8.614;2024-03-07T01:35:09;13.35;;;9.40;;
77055;SDS011;67471;44.918;8.614;2024-03-07T01:38:13;8.75;;;6.60;;
77055;SDS011;67471;44.918;8.614;2024-03-07T01:41:17;9.32;;;6.00;;
77055;SDS011;67471;44.918;8.614;2024-03-07T01:44:21;9.82;;;6.30;;
77055;SDS011;67471;44.918;8.614;2024-03-07T01:47:25;10.18;;;6.57;;
77055;SDS011;67471;44.918;8.614;2024-03-07T01:50:29;12.52;;;6.80;;
77055;SDS011;67471;44.918;8.614;2024-03-07T01:53:33;9.35;;;6.30;;
77055;SDS011;67471;44.918;8.614;2024-03-07T01:56:37;11.23;;;6.85;;
77055;SDS011;67471;44.918;8.614;2024-03-07T01:59:41;11.15;;;7.45;;
77055;SDS011;67471;44.918;8.614;2024-03-07T02:02:47;12.25;;;7.78;;
77055;SDS011;67471;44.918;8.614;2024-03-07T02:05:51;9.25;;;6.97;;
77055;SDS011;67471;44.918;8.614;2024-03-07T02:08:54;10.30;;;7.00;;
77055;SDS011;67471;44.918;8.614;2024-03-07T02:11:58;7.97;;;6.20;;
77055;SDS011;67471;44.918;8.614;2024-03-07T02:15:02;10.40;;;7.57;;
77055;SDS011;67471;44.918;8.614;2024-03-07T02:18:06;9.02;;;7.03;;
77055;SDS011;67471;44.918;8.614;2024-03-07T02:21:12;11.73;;;6.30;;
77055;SDS011;67471;44.918;8.614;2024-03-07T02:24:17;8.63;;;6.57;;
77055;SDS011;67471;44.918;8.614;2024-03-07T02:27:20;8.80;;;6.63;;
77055;SDS011;67471;44.918;8.614;2024-03-07T02:30:24;9.18;;;6.75;;
77055;SDS011;67471;44.918;8.614;2024-03-07T02:33:28;9.50;;;6.82;;
77055;SDS011;67471;44.918;8.614;2024-03-07T02:36:50;7.90;;;6.47;;
77055;SDS011;67471;44.918;8.614;2024-03-07T02:39:54;8.05;;;6.35;;
77055;SDS011;67471;44.918;8.614;2024-03-07T02:42:58;13.35;;;7.88;;
77055;SDS011;67471;44.918;8.614;2024-03-07T02:46:01;10.52;;;7.50;;
77055;SDS011;67471;44.918;8.614;2024-03-07T02:49:05;10.52;;;7.07;;
77055;SDS011;67471;44.918;8.614;2024-03-07T02:52:09;9.50;;;6.60;;
77055;SDS011;67471;44.918;8.614;2024-03-07T02:55:13;10.02;;;7.00;;
77055;SDS011;67471;44.918;8.614;2024-03-07T02:58:17;9.93;;;6.45;;
77055;SDS011;67471;44.918;8.614;2024-03-07T03:01:21;9.38;;;6.00;;
77055;SDS011;67471;44.918;8.614;2024-03-07T03:04:25;10.93;;;6.20;;
77055;SDS011;67471;44.918;8.614;2024-03-07T03:07:29;10.32;;;6.38;;
77055;SDS011;67471;44.918;8.614;2024-03-07T03:10:32;6.93;;;5.70;;
77055;SDS011;67471;44.918;8.614;2024-03-07T03:13:42;7.85;;;6.00;;
77055;SDS011;67471;44.918;8.614;2024-03-07T03:16:47;8.07;;;6.30;;
77055;SDS011;67471;44.918;8.614;2024-03-07T03:19:51;9.48;;;6.07;;
77055;SDS011;67471;44.918;8.614;2024-03-07T03:22:55;9.13;;;6.32;;
77055;SDS011;67471;44.918;8.614;2024-03-07T03:25:59;7.38;;;5.93;;
77055;SDS011;67471;44.918;8.614;2024-03-07T03:29:03;8.90;;;6.20;;
77055;SDS011;67471;44.918;8.614;2024-03-07T03:32:07;14.70;;;6.95;;
77055;SDS011;67471;44.918;8.614;2024-03-07T03:35:11;8.93;;;6.00;;
77055;SDS011;67471;44.918;8.614;2024-03-07T03:38:16;13.25;;;7.13;;
77055;SDS011;67471;44.918;8.614;2024-03-07T03:41:21;14.05;;;6.85;;
77055;SDS011;67471;44.918;8.614;2024-03-07T03:44:25;10.98;;;7.05;;
77055;SDS011;67471;44.918;8.614;2024-03-07T03:47:29;9.25;;;6.13;;
77055;SDS011;67471;44.918;8.614;2024-03-07T03:50:33;8.23;;;6.32;;
77055;SDS011;67471;44.918;8.614;2024-03-07T03:53:37;9.88;;;7.10;;
77055;SDS011;67471;44.918;8.614;2024-03-07T03:56:40;11.48;;;6.80;;
77055;SDS011;67471;44.918;8.614;2024-03-07T03:59:44;10.77;;;7.35;;
77055;SDS011;67471;44.918;8.614;2024-03-07T04:02:48;15.02;;;7.95;;
77055;SDS011;67471;44.918;8.614;2024-03-07T04:05:52;8.77;;;6.60;;
77055;SDS011;67471;44.918;8.614;2024-03-07T04:08:56;10.75;;;6.80;;
77055;SDS011;67471;44.918;8.614;2024-03-07T04:11:59;11.45;;;7.45;;
77055;SDS011;67471;44.918;8.614;2024-03-07T04:15:04;12.35;;;7.07;;
77055;SDS011;67471;44.918;8.614;2024-03-07T04:18:10;11.70;;;7.55;;
77055;SDS011;67471;44.918;8.614;2024-03-07T04:21:14;14.68;;;8.13;;
77055;SDS011;67471;44.918;8.614;2024-03-07T04:24:18;11.30;;;7.57;;
77055;SDS011;67471;44.918;8.614;2024-03-07T04:27:21;14.23;;;7.53;;
77055;SDS011;67471;44.918;8.614;2024-03-07T04:30:25;12.30;;;7.38;;
77055;SDS011;67471;44.918;8.614;2024-03-07T04:33:29;10.27;;;7.45;;
77055;SDS011;67471;44.918;8.614;2024-03-07T04:36:33;9.98;;;7.50;;
77055;SDS011;67471;44.918;8.614;2024-03-07T04:39:38;11.57;;;7.03;;
77055;SDS011;67471;44.918;8.614;2024-03-07T04:42:43;9.55;;;7.30;;
77055;SDS011;67471;44.918;8.614;2024-03-07T04:45:49;11.32;;;6.30;;
77055;SDS011;67471;44.918;8.614;2024-03-07T04:48:52;9.52;;;6.35;;
77055;SDS011;67471;44.918;8.614;2024-03-07T04:51:56;8.45;;;6.50;;
77055;SDS011;67471;44.918;8.614;2024-03-07T04:55:01;10.90;;;6.97;;
77055;SDS011;67471;44.918;8.614;2024-03-07T04:58:05;10.02;;;6.97;;
77055;SDS011;67471;44.918;8.614;2024-03-07T05:01:09;9.77;;;6.93;;
77055;SDS011;67471;44.918;8.614;2024-03-07T05:04:13;9.50;;;6.68;;
77055;SDS011;67471;44.918;8.614;2024-03-07T05:07:18;9.02;;;7.07;;
77055;SDS011;67471;44.918;8.614;2024-03-07T05:10:22;9.90;;;6.47;;
77055;SDS011;67471;44.918;8.614;2024-03-07T05:13:25;8.27;;;7.10;;
77055;SDS011;67471;44.918;8.614;2024-03-07T05:16:30;12.98;;;7.38;;
77055;SDS011;67471;44.918;8.614;2024-03-07T05:19:35;9.73;;;7.22;;
77055;SDS011;67471;44.918;8.614;2024-03-07T05:22:39;9.90;;;7.38;;
77055;SDS011;67471;44.918;8.614;2024-03-07T05:25:53;10.38;;;7.45;;
77055;SDS011;67471;44.918;8.614;2024-03-07T05:28:57;10.63;;;7.00;;
77055;SDS011;67471;44.918;8.614;2024-03-07T05:32:24;12.10;;;8.00;;
77055;SDS011;67471;44.918;8.614;2024-03-07T05:35:29;13.70;;;7.65;;
77055;SDS011;67471;44.918;8.614;2024-03-07T05:38:33;12.20;;;9.05;;
77055;SDS011;67471;44.918;8.614;2024-03-07T05:41:43;11.05;;;8.52;;
77055;SDS011;67471;44.918;8.614;2024-03-07T05:44:49;13.13;;;8.00;;
77055;SDS011;67471;44.918;8.614;2024-03-07T05:47:52;11.55;;;8.15;;
77055;SDS011;67471;44.918;8.614;2024-03-07T05:50:56;10.52;;;7.70;;
77055;SDS011;67471;44.918;8.614;2024-03-07T05:54:00;10.80;;;7.63;;
77055;SDS011;67471;44.918;8.614;2024-03-07T05:57:04;9.82;;;7.35;;
77055;SDS011;67471;44.918;8.614;2024-03-07T06:00:11;11.15;;;7.55;;
77055;SDS011;67471;44.918;8.614;2024-03-07T06:03:18;10.27;;;7.63;;
77055;SDS011;67471;44.918;8.614;2024-03-07T06:06:25;11.52;;;7.70;;
77055;SDS011;67471;44.918;8.614;2024-03-07T06:09:28;10.80;;;7.97;;
77055;SDS011;67471;44.918;8.614;2024-03-07T06:12:32;11.75;;;8.10;;
77055;SDS011;67471;44.918;8.614;2024-03-07T06:15:37;9.77;;;7.05;;
77055;SDS011;67471;44.918;8.614;2024-03-07T06:18:41;9.65;;;7.18;;
77055;SDS011;67471;44.918;8.614;2024-03-07T06:21:45;11.48;;;7.15;;
77055;SDS011;67471;44.918;8.614;2024-03-07T06:24:49;9.90;;;7.32;;
77055;SDS011;67471;44.918;8.614;2024-03-07T06:27:53;10.60;;;7.40;;
77055;SDS011;67471;44.918;8.614;2024-03-07T06:30:59;10.55;;;6.88;;
77055;SDS011;67471;44.918;8.614;2024-03-07T06:34:07;10.05;;;7.35;;
77055;SDS011;67471;44.918;8.614;2024-03-07T06:37:14;10.50;;;7.70;;
77055;SDS011;67471;44.918;8.614;2024-03-07T06:40:18;10.85;;;8.20;;
77055;SDS011;67471;44.918;8.614;2024-03-07T06:43:25;10.05;;;7.45;;
77055;SDS011;67471;44.918;8.614;2024-03-07T06:46:29;8.98;;;6.78;;
77055;SDS011;67471;44.918;8.614;2024-03-07T06:49:34;11.35;;;7.25;;
77055;SDS011;67471;44.918;8.614;2024-03-07T06:52:39;13.70;;;7.70;;
77055;SDS011;67471;44.918;8.614;2024-03-07T06:55:43;11.60;;;7.78;;
77055;SDS011;67471;44.918;8.614;2024-03-07T06:58:47;12.32;;;8.05;;
77055;SDS011;67471;44.918;8.614;2024-03-07T07:01:51;12.77;;;7.50;;
77055;SDS011;67471;44.918;8.614;2024-03-07T07:04:57;12.35;;;8.13;;
77055;SDS011;67471;44.918;8.614;2024-03-07T07:08:01;9.43;;;6.63;;
77055;SDS011;67471;44.918;8.614;2024-03-07T07:11:05;7.97;;;6.32;;
77055;SDS011;67471;44.918;8.614;2024-03-07T07:14:09;10.13;;;7.55;;
77055;SDS011;67471;44.918;8.614;2024-03-07T07:17:12;10.70;;;8.05;;
77055;SDS011;67471;44.918;8.614;2024-03-07T07:20:17;9.82;;;6.80;;
77055;SDS011;67471;44.918;8.614;2024-03-07T07:23:21;8.13;;;5.68;;
77055;SDS011;67471;44.918;8.614;2024-03-07T07:26:24;13.70;;;5.65;;
77055;SDS011;67471;44.918;8.614;2024-03-07T07:29:29;7.22;;;5.50;;
77055;SDS011;67471;44.918;8.614;2024-03-07T07:32:32;8.68;;;5.43;;
77055;SDS011;67471;44.918;8.614;2024-03-07T07:35:36;7.97;;;5.93;;
77055;SDS011;67471;44.918;8.614;2024-03-07T07:38:40;6.93;;;5.82;;
77055;SDS011;67471;44.918;8.614;2024-03-07T07:41:45;7.22;;;5.78;;
77055;SDS011;67471;44.918;8.614;2024-03-07T07:44:49;8.43;;;5.60;;
77055;SDS011;67471;44.918;8.614;2024-03-07T07:47:53;8.07;;;6.00;;
77055;SDS011;67471;44.918;8.614;2024-03-07T07:50:57;8.02;;;5.40;;
77055;SDS011;67471;44.918;8.614;2024-03-07T07:54:02;7.10;;;5.68;;
77055;SDS011;67471;44.918;8.614;2024-03-07T07:57:05;6.38;;;5.55;;
77055;SDS011;67471;44.918;8.614;2024-03-07T08:00:18;8.77;;;6.00;;
77055;SDS011;67471;44.918;8.614;2024-03-07T08:03:26;9.40;;;5.47;;
77055;SDS011;67471;44.918;8.614;2024-03-07T08:06:31;7.15;;;6.25;;
77055;SDS011;67471;44.918;8.614;2024-03-07T08:09:35;10.35;;;7.10;;
77055;SDS011;67471;44.918;8.614;2024-03-07T08:12:39;8.90;;;5.90;;
77055;SDS011;67471;44.918;8.614;2024-03-07T08:15:46;7.83;;;5.90;;
77055;SDS011;67471;44.918;8.614;2024-03-07T08:18:50;7.85;;;5.72;;
77055;SDS011;67471;44.918;8.614;2024-03-07T08:21:54;9.65;;;6.45;;
77055;SDS011;67471;44.918;8.614;2024-03-07T08:24:58;7.90;;;5.75;;
77055;SDS011;67471;44.918;8.614;2024-03-07T08:28:02;12.70;;;5.78;;
77055;SDS011;67471;44.918;8.614;2024-03-07T08:31:05;8.27;;;5.75;;
77055;SDS011;67471;44.918;8.614;2024-03-07T08:34:10;7.80;;;5.68;;
77055;SDS011;67471;44.918;8.614;2024-03-07T08:37:14;7.72;;;5.68;;
77055;SDS011;67471;44.918;8.614;2024-03-07T08:40:17;10.02;;;6.05;;
77055;SDS011;67471;44.918;8.614;2024-03-07T08:43:25;7.47;;;5.93;;
77055;SDS011;67471;44.918;8.614;2024-03-07T08:46:30;8.95;;;5.80;;
77055;SDS011;67471;44.918;8.614;2024-03-07T08:49:34;8.60;;;5.65;;
77055;SDS011;67471;44.918;8.614;2024-03-07T08:52:38;9.27;;;6.30;;
77055;SDS011;67471;44.918;8.614;2024-03-07T08:55:43;8.52;;;5.55;;
77055;SDS011;67471;44.918;8.614;2024-03-07T08:58:46;8.27;;;5.57;;
77055;SDS011;67471;44.918;8.614;2024-03-07T09:01:50;10.50;;;5.78;;
77055;SDS011;67471;44.918;8.614;2024-03-07T09:04:55;7.18;;;5.40;;
77055;SDS011;67471;44.918;8.614;2024-03-07T09:07:59;9.40;;;5.70;;
77055;SDS011;67471;44.918;8.614;2024-03-07T09:11:03;8.30;;;5.43;;
77055;SDS011;67471;44.918;8.614;2024-03-07T09:14:07;9.23;;;6.15;;
77055;SDS011;67471;44.918;8.614;2024-03-07T09:17:12;8.57;;;6.38;;
77055;SDS011;67471;44.918;8.614;2024-03-07T09:20:16;11.20;;;6.50;;
77055;SDS011;67471;44.918;8.614;2024-03-07T09:23:22;9.60;;;6.80;;
77055;SDS011;67471;44.918;8.614;2024-03-07T09:26:26;12.63;;;7.32;;
77055;SDS011;67471;44.918;8.614;2024-03-07T09:29:30;10.35;;;7.40;;
77055;SDS011;67471;44.918;8.614;2024-03-07T09:32:33;12.70;;;7.82;;
77055;SDS011;67471;44.918;8.614;2024-03-07T09:35:37;9.13;;;6.78;;
77055;SDS011;67471;44.918;8.614;2024-03-07T09:38:42;8.98;;;7.38;;
77055;SDS011;67471;44.918;8.614;2024-03-07T09:41:46;8.10;;;6.38;;
77055;SDS011;67471;44.918;8.614;2024-03-07T09:44:49;10.57;;;7.13;;
77055;SDS011;67471;44.918;8.614;2024-03-07T09:47:54;10.55;;;7.35;;
77055;SDS011;67471;44.918;8.614;2024-03-07T09:50:58;11.07;;;7.95;;
77055;SDS011;67471;44.918;8.614;2024-03-07T09:54:03;8.07;;;6.82;;
77055;SDS011;67471;44.918;8.614;2024-03-07T09:57:07;13.10;;;7.60;;
77055;SDS011;67471;44.918;8.614;2024-03-07T10:00:13;9.50;;;7.38;;
77055;SDS011;67471;44.918;8.614;2024-03-07T10:03:26;23.85;;;13.05;;
77055;SDS011;67471;44.918;8.614;2024-03-07T10:06:32;12.50;;;7.80;;
77055;SDS011;67471;44.918;8.614;2024-03-07T10:09:37;20.70;;;11.57;;
77055;SDS011;67471;44.918;8.614;2024-03-07T10:12:41;13.55;;;10.40;;
77055;SDS011;67471;44.918;8.614;2024-03-07T10:15:45;10.90;;;8.73;;
77055;SDS011;67471;44.918;8.614;2024-03-07T10:18:51;10.55;;;7.88;;
77055;SDS011;67471;44.918;8.614;2024-03-07T10:21:54;10.95;;;8.07;;
77055;SDS011;67471;44.918;8.614;2024-03-07T10:25:03;13.98;;;10.18;;
77055;SDS011;67471;44.918;8.614;2024-03-07T10:28:08;12.48;;;9.48;;
77055;SDS011;67471;44.918;8.614;2024-03-07T10:31:27;13.35;;;8.88;;
77055;SDS011;67471;44.918;8.614;2024-03-07T10:34:35;9.95;;;8.23;;
77055;SDS011;67471;44.918;8.614;2024-03-07T10:37:38;12.00;;;9.05;;
77055;SDS011;67471;44.918;8.614;2024-03-07T10:40:42;12.38;;;9.65;;
77055;SDS011;67471;44.918;8.614;2024-03-07T10:43:47;12.15;;;9.23;;
77055;SDS011;67471;44.918;8.614;2024-03-07T10:46:55;12.73;;;8.98;;
77055;SDS011;67471;44.918;8.614;2024-03-07T10:53:19;13.95;;;10.27;;
77055;SDS011;67471;44.918;8.614;2024-03-07T10:56:43;12.32;;;8.95;;
77055;SDS011;67471;44.918;8.614;2024-03-07T10:59:56;10.95;;;9.18;;
77055;SDS011;67471;44.918;8.614;2024-03-07T11:03:02;12.02;;;8.60;;
77055;SDS011;67471;44.918;8.614;2024-03-07T11:06:10;11.68;;;8.32;;
77055;SDS011;67471;44.918;8.614;2024-03-07T11:09:14;15.73;;;9.13;;
77055;SDS011;67471;44.918;8.614;2024-03-07T11:12:26;12.27;;;9.25;;
77055;SDS011;67471;44.918;8.614;2024-03-07T11:15:32;12.25;;;8.57;;
77055;SDS011;67471;44.918;8.614;2024-03-07T11:18:37;10.18;;;7.70;;
77055;SDS011;67471;44.918;8.614;2024-03-07T11:21:40;11.50;;;7.70;;
77055;SDS011;67471;44.918;8.614;2024-03-07T11:24:44;10.75;;;8.05;;
77055;SDS011;67471;44.918;8.614;2024-03-07T11:28:05;13.60;;;9.75;;
77055;SDS011;67471;44.918;8.614;2024-03-07T11:31:09;16.60;;;12.90;;
77055;SDS011;67471;44.918;8.614;2024-03-07T11:34:31;14.73;;;9.73;;
77055;SDS011;67471;44.918;8.614;2024-03-07T11:37:45;12.18;;;8.80;;
77055;SDS011;67471;44.918;8.614;2024-03-07T11:40:51;14.20;;;7.55;;
77055;SDS011;67471;44.918;8.614;2024-03-07T11:43:55;8.90;;;7.72;;
77055;SDS011;67471;44.918;8.614;2024-03-07T11:47:03;12.25;;;7.68;;
77055;SDS011;67471;44.918;8.614;2024-03-07T11:50:13;10.95;;;8.57;;
77055;SDS011;67471;44.918;8.614;2024-03-07T11:53:16;10.93;;;8.15;;
77055;SDS011;67471;44.918;8.614;2024-03-07T11:56:20;10.10;;;7.75;;
77055;SDS011;67471;44.918;8.614;2024-03-07T11:59:24;10.52;;;7.20;;
77055;SDS011;67471;44.918;8.614;2024-03-07T12:02:36;8.00;;;6.25;;
77055;SDS011;67471;44.918;8.614;2024-03-07T12:05:40;10.07;;;5.50;;
77055;SDS011;67471;44.918;8.614;2024-03-07T12:08:45;9.95;;;6.70;;
77055;SDS011;67471;44.918;8.614;2024-03-07T12:11:49;10.20;;;6.45;;
77055;SDS011;67471;44.918;8.614;2024-03-07T12:14:56;8.40;;;5.75;;
77055;SDS011;67471;44.918;8.614;2024-03-07T12:18:00;12.10;;;6.70;;
77055;SDS011;67471;44.918;8.614;2024-03-07T12:21:05;11.52;;;8.73;;
77055;SDS011;67471;44.918;8.614;2024-03-07T12:24:15;10.93;;;8.07;;
77055;SDS011;67471;44.918;8.614;2024-03-07T12:27:19;7.53;;;5.25;;
77055;SDS011;67471;44.918;8.614;2024-03-07T12:30:23;7.03;;;4.65;;
77055;SDS011;67471;44.918;8.614;2024-03-07T12:33:31;7.72;;;4.60;;
77055;SDS011;67471;44.918;8.614;2024-03-07T12:36:36;7.93;;;3.92;;
77055;SDS011;67471;44.918;8.614;2024-03-07T12:39:49;5.15;;;3.65;;
77055;SDS011;67471;44.918;8.614;2024-03-07T12:43:12;8.00;;;4.00;;
77055;SDS011;67471;44.918;8.614;2024-03-07T12:46:25;7.15;;;3.13;;
77055;SDS011;67471;44.918;8.614;2024-03-07T12:49:31;9.60;;;3.70;;
77055;SDS011;67471;44.918;8.614;2024-03-07T12:52:35;6.85;;;3.50;;
77055;SDS011;67471;44.918;8.614;2024-03-07T12:55:39;6.00;;;3.22;;
77055;SDS011;67471;44.918;8.614;2024-03-07T12:58:46;5.07;;;3.70;;
77055;SDS011;67471;44.918;8.614;2024-03-07T13:01:50;5.97;;;3.60;;
77055;SDS011;67471;44.918;8.614;2024-03-07T13:04:54;6.47;;;3.63;;
77055;SDS011;67471;44.918;8.614;2024-03-07T13:07:58;6.95;;;4.57;;
77055;SDS011;67471;44.918;8.614;2024-03-07T13:11:02;6.50;;;4.03;;
77055;SDS011;67471;44.918;8.614;2024-03-07T13:14:06;6.82;;;4.00;;
77055;SDS011;67471;44.918;8.614;2024-03-07T13:17:11;4.90;;;3.30;;
77055;SDS011;67471;44.918;8.614;2024-03-07T13:20:17;5.85;;;4.00;;
77055;SDS011;67471;44.918;8.614;2024-03-07T13:23:25;6.63;;;3.85;;
77055;SDS011;67471;44.918;8.614;2024-03-07T13:26:31;6.07;;;3.83;;
77055;SDS011;67471;44.918;8.614;2024-03-07T13:29:35;6.32;;;3.80;;
77055;SDS011;67471;44.918;8.614;2024-03-07T13:32:38;5.03;;;3.67;;
77055;SDS011;67471;44.918;8.614;2024-03-07T13:35:43;5.10;;;4.43;;
77055;SDS011;67471;44.918;8.614;2024-03-07T13:38:47;7.82;;;3.95;;
77055;SDS011;67471;44.918;8.614;2024-03-07T13:41:51;6.78;;;4.53;;
77055;SDS011;67471;44.918;8.614;2024-03-07T13:44:55;6.00;;;3.53;;
77055;SDS011;67471;44.918;8.614;2024-03-07T13:47:59;6.50;;;3.95;;
77055;SDS011;67471;44.918;8.614;2024-03-07T13:51:03;5.28;;;3.33;;
77055;SDS011;67471;44.918;8.614;2024-03-07T13:54:11;5.47;;;3.05;;
77055;SDS011;67471;44.918;8.614;2024-03-07T13:57:36;5.82;;;3.15;;
77055;SDS011;67471;44.918;8.614;2024-03-07T14:11:36;6.20;;;3.03;;
77055;SDS011;67471;44.918;8.614;2024-03-07T14:32:41;4.97;;;2.33;;
77055;SDS011;67471;44.918;8.614;2024-03-07T14:39:11;3.83;;;1.80;;
77055;SDS011;67471;44.918;8.614;2024-03-07T14:42:19;4.73;;;1.60;;
77055;SDS011;67471;44.918;8.614;2024-03-07T14:45:27;4.43;;;1.95;;
77055;SDS011;67471;44.918;8.614;2024-03-07T14:48:35;5.60;;;1.50;;
77055;SDS011;67471;44.918;8.614;2024-03-07T14:51:39;3.67;;;1.30;;
77055;SDS011;67471;44.918;8.614;2024-03-07T14:54:43;4.00;;;1.80;;
77055;SDS011;67471;44.918;8.614;2024-03-07T14:57:47;3.25;;;1.52;;
77055;SDS011;67471;44.918;8.614;2024-03-07T15:00:51;2.42;;;1.45;;
77055;SDS011;67471;44.918;8.614;2024-03-07T15:03:58;4.20;;;1.45;;
77055;SDS011;67471;44.918;8.614;2024-03-07T15:07:01;3.28;;;1.63;;
77055;SDS011;67471;44.918;8.614;2024-03-07T15:10:07;3.83;;;1.40;;
77055;SDS011;67471;44.918;8.614;2024-03-07T15:13:21;1.83;;;1.00;;
77055;SDS011;67471;44.918;8.614;2024-03-07T15:16:26;2.03;;;1.10;;
77055;SDS011;67471;44.918;8.614;2024-03-07T15:19:38;3.63;;;1.20;;
77055;SDS011;67471;44.918;8.614;2024-03-07T15:22:42;4.13;;;1.80;;
77055;SDS011;67471;44.918;8.614;2024-03-07T15:25:49;3.35;;;1.42;;
77055;SDS011;67471;44.918;8.614;2024-03-07T15:28:53;2.92;;;1.48;;
77055;SDS011;67471;44.918;8.614;2024-03-07T15:32:00;5.45;;;2.13;;
77055;SDS011;67471;44.918;8.614;2024-03-07T15:35:05;4.95;;;2.80;;
77055;SDS011;67471;44.918;8.614;2024-03-07T15:38:14;4.25;;;2.50;;
77055;SDS011;67471;44.918;8.614;2024-03-07T15:41:20;2.80;;;1.80;;
77055;SDS011;67471;44.918;8.614;2024-03-07T15:44:25;3.00;;;1.55;;
77055;SDS011;67471;44.918;8.614;2024-03-07T15:47:28;4.20;;;1.50;;
77055;SDS011;67471;44.918;8.614;2024-03-07T15:50:32;3.83;;;1.70;;
77055;SDS011;67471;44.918;8.614;2024-03-07T15:53:36;2.88;;;1.48;;
77055;SDS011;67471;44.918;8.614;2024-03-07T15:56:39;3.92;;;2.55;;
77055;SDS011;67471;44.918;8.614;2024-03-07T15:59:43;5.13;;;1.95;;
77055;SDS011;67471;44.918;8.614;2024-03-07T16:02:47;3.60;;;1.38;;
77055;SDS011;67471;44.918;8.614;2024-03-07T16:05:51;3.63;;;1.40;;
77055;SDS011;67471;44.918;8.614;2024-03-07T16:08:55;4.32;;;1.85;;
77055;SDS011;67471;44.918;8.614;2024-03-07T16:11:59;3.72;;;2.13;;
77055;SDS011;67471;44.918;8.614;2024-03-07T16:15:03;3.35;;;1.92;;
77055;SDS011;67471;44.918;8.614;2024-03-07T16:18:07;3.78;;;1.88;;
77055;SDS011;67471;44.918;8.614;2024-03-07T16:21:13;5.80;;;2.83;;
77055;SDS011;67471;44.918;8.614;2024-03-07T16:24:17;5.28;;;2.00;;
77055;SDS011;67471;44.918;8.614;2024-03-07T16:27:21;7.55;;;2.20;;
77055;SDS011;67471;44.918;8.614;2024-03-07T16:30:25;4.78;;;1.98;;
77055;SDS011;67471;44.918;8.614;2024-03-07T16:33:32;4.03;;;2.25;;
77055;SDS011;67471;44.918;8.614;2024-03-07T16:36:37;5.32;;;2.20;;
77055;SDS011;67471;44.918;8.614;2024-03-07T16:39:41;2.92;;;1.65;;
77055;SDS011;67471;44.918;8.614;2024-03-07T16:42:46;3.83;;;1.90;;
77055;SDS011;67471;44.918;8.614;2024-03-07T16:45:58;4.75;;;1.75;;
77055;SDS011;67471;44.918;8.614;2024-03-07T16:49:02;2.55;;;1.35;;
77055;SDS011;67471;44.918;8.614;2024-03-07T16:52:06;3.85;;;1.48;;
77055;SDS011;67471;44.918;8.614;2024-03-07T16:55:10;3.55;;;1.75;;
77055;SDS011;67471;44.918;8.614;2024-03-07T16:58:14;4.68;;;1.90;;
77055;SDS011;67471;44.918;8.614;2024-03-07T17:01:19;2.38;;;1.55;;
77055;SDS011;67471;44.918;8.614;2024-03-07T17:04:23;3.17;;;1.95;;
77055;SDS011;67471;44.918;8.614;2024-03-07T17:07:27;4.75;;;1.90;;
77055;SDS011;67471;44.918;8.614;2024-03-07T17:10:32;6.18;;;2.42;;
77055;SDS011;67471;44.918;8.614;2024-03-07T17:13:38;5.75;;;2.50;;
77055;SDS011;67471;44.918;8.614;2024-03-07T17:16:43;5.70;;;2.85;;
77055;SDS011;67471;44.918;8.614;2024-03-07T17:19:47;8.23;;;4.57;;
77055;SDS011;67471;44.918;8.614;2024-03-07T17:22:51;6.45;;;3.97;;
77055;SDS011;67471;44.918;8.614;2024-03-07T17:25:55;5.95;;;2.90;;
77055;SDS011;67471;44.918;8.614;2024-03-07T17:28:59;4.72;;;2.45;;
77055;SDS011;67471;44.918;8.614;2024-03-07T17:32:04;6.25;;;3.25;;
77055;SDS011;67471;44.918;8.614;2024-03-07T17:35:09;5.68;;;3.30;;
77055;SDS011;67471;44.918;8.614;2024-03-07T17:38:14;6.10;;;3.10;;
77055;SDS011;67471;44.918;8.614;2024-03-07T17:41:18;3.88;;;2.63;;
77055;SDS011;67471;44.918;8.614;2024-03-07T17:44:22;12.23;;;3.38;;
77055;SDS011;67471;44.918;8.614;2024-03-07T17:47:25;5.15;;;3.22;;
77055;SDS011;67471;44.918;8.614;2024-03-07T17:50:32;8.15;;;3.08;;
77055;SDS011;67471;44.918;8.614;2024-03-07T17:53:36;8.10;;;3.40;;
77055;SDS011;67471;44.918;8.614;2024-03-07T17:56:43;6.07;;;3.03;;
77055;SDS011;67471;44.918;8.614;2024-03-07T17:59:47;4.60;;;3.08;;
77055;SDS011;67471;44.918;8.614;2024-03-07T18:02:50;4.75;;;2.60;;
77055;SDS011;67471;44.918;8.614;2024-03-07T18:05:54;5.88;;;2.40;;
77055;SDS011;67471;44.918;8.614;2024-03-07T18:08:58;8.48;;;3.47;;
77055;SDS011;67471;44.918;8.614;2024-03-07T18:12:02;5.35;;;3.20;;
77055;SDS011;67471;44.918;8.614;2024-03-07T18:15:06;12.48;;;6.70;;
77055;SDS011;67471;44.918;8.614;2024-03-07T18:18:13;7.90;;;3.22;;
77055;SDS011;67471;44.918;8.614;2024-03-07T18:21:19;8.10;;;3.55;;
77055;SDS011;67471;44.918;8.614;2024-03-07T18:24:24;7.28;;;3.10;;
77055;SDS011;67471;44.918;8.614;2024-03-07T18:27:29;5.45;;;3.05;;
77055;SDS011;67471;44.918;8.614;2024-03-07T18:30:33;10.05;;;5.28;;
77055;SDS011;67471;44.918;8.614;2024-03-07T18:33:37;5.90;;;4.03;;
77055;SDS011;67471;44.918;8.614;2024-03-07T18:36:45;10.27;;;4.35;;
77055;SDS011;67471;44.918;8.614;2024-03-07T18:39:49;6.38;;;3.78;;
77055;SDS011;67471;44.918;8.614;2024-03-07T18:42:55;6.45;;;3.38;;
77055;SDS011;67471;44.918;8.614;2024-03-07T18:45:58;5.75;;;3.35;;
77055;SDS011;67471;44.918;8.614;2024-03-07T18:49:02;6.85;;;3.30;;
77055;SDS011;67471;44.918;8.614;2024-03-07T18:55:15;12.85;;;3.20;;
77055;SDS011;67471;44.918;8.614;2024-03-07T19:01:29;6.43;;;2.70;;
77055;SDS011;67471;44.918;8.614;2024-03-07T19:04:35;4.70;;;2.88;;
77055;SDS011;67471;44.918;8.614;2024-03-07T19:07:39;7.47;;;2.78;;
77055;SDS011;67471;44.918;8.614;2024-03-07T19:10:43;6.63;;;3.20;;
77055;SDS011;67471;44.918;8.614;2024-03-07T19:13:48;7.07;;;2.47;;